Ajo, AZ

4:21 AM MST on July 29, 2014 (GMT -0700)
KAZAJO2 Elev 1739 ft | 32.38 °N, 112.86 °W | Change Station

Current weather conditions updated 1 minute ago

Clear
Clear
82.5 °F
Feels Like 83 °F
N
3.0
Wind Variable Wind from ESE
Gusts 4.0 mph

Today is forecast to be Warmer than yesterday.

Today
High -- | Low -- °F
--% Chance of Precip.
Yesterday
High -- | Low -- °F
Precip. -- in
5:44 AM 7:31 PM
Waxing Crescent, 6% visible
Pressure 29.94 in
Visibility 10.0 miles
Clouds Clear
Heat Index 83 °F
Dew Point 59 °F
Humidity 45%
Rainfall 0.00 in
Snow Depth Not available.
UV 0 out of 12
Pollen 4.10 out of 12
Air Quality Not available.
Flu Activity Not available.
METAR KBXK 291115Z AUTO 00000KT 10SM CLR 29/14 A2994 RMK AO1

More Conditions Fewer Conditions

Pressure 29.94 in
Visibility 10.0 miles
Clouds Clear
Heat Index 83 °F
Dew Point 59 °F
Humidity 45%
Rainfall 0.00 in
Snow Depth Not available.
UV 0 out of 12
Pollen 4.10 out of 12
Air Quality Not available.
Flu Activity Not available.
METAR KBXK 291115Z AUTO 00000KT 10SM CLR 29/14 A2994 RMK AO1

More Conditions Fewer Conditions

10-Day Weather Forecast

Almanac

Astronomy

Jul. 29, 2014 Rise Set
Actual Time 5:44 AM MST 7:31 PM MST
Civil Twilight 5:17 AM MST 7:58 PM MST
Nautical Twilight 4:44 AM MST 8:30 PM MST
Astronomical Twilight 4:10 AM MST 9:05 PM MST
Moon 8:12 AM MST 8:59 PM MST
Length of Visible Light 14h 41m
Length of Day
13h 47m
Tomorrow will be 1m 25s shorter.
Waxing Crescent, 6% of the Moon is Illuminated
Today
Waxing Crescent
Aug 3
First Quarter
Aug 10
Full
Aug 17
Last Quarter
Aug 25
New

Today's Extremes

State Highs State Lows

Community

WunderPhotos

Upload Photos

1,738,685 photos uploaded!

Nearby

Snow Depth

Station Depth Elevation
Workman Creek 1 in 6900 ft
Promontory 0 in 7930 ft
Heber 0 in 7640 ft
White Horse Lake 1 in 7180 ft
Wildcat 0 in 7850 ft

Earthquake Activity

City Distance Mag. Time & Date
No recent earthquake activity has been reported nearby.
Minimum magnitude displayed is 2.5.

Coastal Water Temperatures

Place Temperature
No Stations Reporting

Nearby Weather Stations

Station Location Temp. Heat Index Dew Point Humidity Wind Precip. Elev Updated Type
Ajo, AZ 82.5 °F 83 °F 59 °F 45% ESE  at  3.0 mph 0.00 in / hr 1739 ft 4:20 AM MST Normal

Show More Stations Show Fewer Stations